sensor_id;sensor_type;location;lat;lon;timestamp;temperature;humidity
11840;DHT22;5979;50.800;4.904;2023-03-11T00:00:34;2.40;99.90
11840;DHT22;5979;50.800;4.904;2023-03-11T00:03:01;2.50;99.90
11840;DHT22;5979;50.800;4.904;2023-03-11T00:05:30;2.50;99.90
11840;DHT22;5979;50.800;4.904;2023-03-11T00:07:56;2.50;99.90
11840;DHT22;5979;50.800;4.904;2023-03-11T00:10:29;2.50;99.90
11840;DHT22;5979;50.800;4.904;2023-03-11T00:12:55;2.50;99.90
11840;DHT22;5979;50.800;4.904;2023-03-11T00:15:21;2.50;99.90
11840;DHT22;5979;50.800;4.904;2023-03-11T00:17:48;2.50;99.90
11840;DHT22;5979;50.800;4.904;2023-03-11T00:20:17;2.40;99.90
11840;DHT22;5979;50.800;4.904;2023-03-11T00:22:43;2.30;99.90
11840;DHT22;5979;50.800;4.904;2023-03-11T00:25:10;2.30;99.90
11840;DHT22;5979;50.800;4.904;2023-03-11T00:27:36;2.20;99.90
11840;DHT22;5979;50.800;4.904;2023-03-11T00:30:02;2.20;99.90
11840;DHT22;5979;50.800;4.904;2023-03-11T00:32:28;2.10;99.90
11840;DHT22;5979;50.800;4.904;2023-03-11T00:34:54;2.10;99.90
11840;DHT22;5979;50.800;4.904;2023-03-11T00:37:51;2.00;99.90
11840;DHT22;5979;50.800;4.904;2023-03-11T00:40:19;2.00;99.90
11840;DHT22;5979;50.800;4.904;2023-03-11T00:42:45;1.90;99.90
11840;DHT22;5979;50.800;4.904;2023-03-11T00:45:12;1.90;99.90
11840;DHT22;5979;50.800;4.904;2023-03-11T00:47:38;1.90;99.90
11840;DHT22;5979;50.800;4.904;2023-03-11T00:50:04;1.90;99.90
11840;DHT22;5979;50.800;4.904;2023-03-11T00:52:30;1.80;99.90
11840;DHT22;5979;50.800;4.904;2023-03-11T00:54:58;1.80;99.90
11840;DHT22;5979;50.800;4.904;2023-03-11T00:57:24;1.80;99.90
11840;DHT22;5979;50.800;4.904;2023-03-11T00:59:51;1.80;99.90
11840;DHT22;5979;50.800;4.904;2023-03-11T01:02:17;1.80;99.90
11840;DHT22;5979;50.800;4.904;2023-03-11T01:04:43;1.80;99.90
11840;DHT22;5979;50.800;4.904;2023-03-11T01:07:09;1.80;99.90
11840;DHT22;5979;50.800;4.904;2023-03-11T01:09:34;1.80;99.90
11840;DHT22;5979;50.800;4.904;2023-03-11T01:12:00;1.80;99.90
11840;DHT22;5979;50.800;4.904;2023-03-11T01:14:26;1.80;99.90
11840;DHT22;5979;50.800;4.904;2023-03-11T01:16:52;1.80;99.90
11840;DHT22;5979;50.800;4.904;2023-03-11T01:19:19;1.80;99.90
11840;DHT22;5979;50.800;4.904;2023-03-11T01:21:45;1.80;99.90
11840;DHT22;5979;50.800;4.904;2023-03-11T01:24:10;1.80;99.90
11840;DHT22;5979;50.800;4.904;2023-03-11T01:26:36;1.80;99.90
11840;DHT22;5979;50.800;4.904;2023-03-11T01:29:02;1.80;99.90
11840;DHT22;5979;50.800;4.904;2023-03-11T01:31:29;1.80;99.90
11840;DHT22;5979;50.800;4.904;2023-03-11T01:33:55;1.80;99.90
11840;DHT22;5979;50.800;4.904;2023-03-11T01:36:21;1.80;99.90
11840;DHT22;5979;50.800;4.904;2023-03-11T01:38:48;1.70;99.90
11840;DHT22;5979;50.800;4.904;2023-03-11T01:41:14;1.70;99.90
11840;DHT22;5979;50.800;4.904;2023-03-11T01:46:17;1.70;99.90
11840;DHT22;5979;50.800;4.904;2023-03-11T01:48:52;1.70;99.90
11840;DHT22;5979;50.800;4.904;2023-03-11T01:51:28;1.60;99.90
11840;DHT22;5979;50.800;4.904;2023-03-11T01:53:56;1.60;99.90
11840;DHT22;5979;50.800;4.904;2023-03-11T01:56:24;1.50;99.90
11840;DHT22;5979;50.800;4.904;2023-03-11T01:58:51;1.50;99.90
11840;DHT22;5979;50.800;4.904;2023-03-11T02:01:19;1.50;99.90
11840;DHT22;5979;50.800;4.904;2023-03-11T02:03:45;1.50;99.90
11840;DHT22;5979;50.800;4.904;2023-03-11T02:06:17;1.50;99.90
11840;DHT22;5979;50.800;4.904;2023-03-11T02:08:44;1.50;99.90
11840;DHT22;5979;50.800;4.904;2023-03-11T02:11:21;1.50;99.90
11840;DHT22;5979;50.800;4.904;2023-03-11T02:13:49;1.50;99.90
11840;DHT22;5979;50.800;4.904;2023-03-11T02:16:16;1.50;99.90
11840;DHT22;5979;50.800;4.904;2023-03-11T02:18:42;1.50;99.90
11840;DHT22;5979;50.800;4.904;2023-03-11T02:21:26;1.50;99.90
11840;DHT22;5979;50.800;4.904;2023-03-11T02:26:55;1.60;99.90
11840;DHT22;5979;50.800;4.904;2023-03-11T02:29:24;1.60;99.90
11840;DHT22;5979;50.800;4.904;2023-03-11T02:31:51;1.70;99.90
11840;DHT22;5979;50.800;4.904;2023-03-11T02:34:31;1.70;99.90
11840;DHT22;5979;50.800;4.904;2023-03-11T02:36:58;1.80;99.90
11840;DHT22;5979;50.800;4.904;2023-03-11T02:39:44;1.70;99.90
11840;DHT22;5979;50.800;4.904;2023-03-11T02:42:17;1.80;99.90
11840;DHT22;5979;50.800;4.904;2023-03-11T02:44:46;1.80;99.90
11840;DHT22;5979;50.800;4.904;2023-03-11T02:47:14;1.80;99.90
11840;DHT22;5979;50.800;4.904;2023-03-11T02:49:40;1.80;99.90
11840;DHT22;5979;50.800;4.904;2023-03-11T02:52:06;1.90;99.90
11840;DHT22;5979;50.800;4.904;2023-03-11T02:54:32;1.90;99.90
11840;DHT22;5979;50.800;4.904;2023-03-11T02:56:58;1.90;99.90
11840;DHT22;5979;50.800;4.904;2023-03-11T02:59:23;1.90;99.90
11840;DHT22;5979;50.800;4.904;2023-03-11T03:01:49;1.90;99.90
11840;DHT22;5979;50.800;4.904;2023-03-11T03:04:15;1.90;99.90
11840;DHT22;5979;50.800;4.904;2023-03-11T03:06:40;2.00;99.90
11840;DHT22;5979;50.800;4.904;2023-03-11T03:09:06;2.00;99.90
11840;DHT22;5979;50.800;4.904;2023-03-11T03:11:32;2.00;99.90
11840;DHT22;5979;50.800;4.904;2023-03-11T03:13:57;2.00;99.90
11840;DHT22;5979;50.800;4.904;2023-03-11T03:16:23;2.00;99.90
11840;DHT22;5979;50.800;4.904;2023-03-11T03:18:49;2.00;99.90
11840;DHT22;5979;50.800;4.904;2023-03-11T03:21:15;1.90;99.90
11840;DHT22;5979;50.800;4.904;2023-03-11T03:23:41;1.90;99.90
11840;DHT22;5979;50.800;4.904;2023-03-11T03:26:07;1.90;99.90
11840;DHT22;5979;50.800;4.904;2023-03-11T03:28:33;1.80;99.90
11840;DHT22;5979;50.800;4.904;2023-03-11T03:31:06;1.80;99.90
11840;DHT22;5979;50.800;4.904;2023-03-11T03:33:32;1.80;99.90
11840;DHT22;5979;50.800;4.904;2023-03-11T03:35:58;1.80;99.90
11840;DHT22;5979;50.800;4.904;2023-03-11T03:38:24;1.80;99.90
11840;DHT22;5979;50.800;4.904;2023-03-11T03:40:50;1.80;99.90
11840;DHT22;5979;50.800;4.904;2023-03-11T03:43:15;1.80;99.90
11840;DHT22;5979;50.800;4.904;2023-03-11T03:45:41;1.80;99.90
11840;DHT22;5979;50.800;4.904;2023-03-11T03:48:07;1.70;99.90
11840;DHT22;5979;50.800;4.904;2023-03-11T03:50:33;1.70;99.90
11840;DHT22;5979;50.800;4.904;2023-03-11T03:52:58;1.70;99.90
11840;DHT22;5979;50.800;4.904;2023-03-11T03:55:24;1.60;99.90
11840;DHT22;5979;50.800;4.904;2023-03-11T03:57:50;1.60;99.90
11840;DHT22;5979;50.800;4.904;2023-03-11T04:00:16;1.60;99.90
11840;DHT22;5979;50.800;4.904;2023-03-11T04:02:42;1.60;99.90
11840;DHT22;5979;50.800;4.904;2023-03-11T04:05:08;1.60;99.90
11840;DHT22;5979;50.800;4.904;2023-03-11T04:07:34;1.60;99.90
11840;DHT22;5979;50.800;4.904;2023-03-11T04:10:01;1.50;99.90
11840;DHT22;5979;50.800;4.904;2023-03-11T04:12:26;1.50;99.90
11840;DHT22;5979;50.800;4.904;2023-03-11T04:14:52;1.50;99.90
11840;DHT22;5979;50.800;4.904;2023-03-11T04:17:18;1.50;99.90
11840;DHT22;5979;50.800;4.904;2023-03-11T04:19:44;1.50;99.90
11840;DHT22;5979;50.800;4.904;2023-03-11T04:22:10;1.50;99.90
11840;DHT22;5979;50.800;4.904;2023-03-11T04:24:36;1.40;99.90
11840;DHT22;5979;50.800;4.904;2023-03-11T04:27:02;1.40;99.90
11840;DHT22;5979;50.800;4.904;2023-03-11T04:29:27;1.40;99.90
11840;DHT22;5979;50.800;4.904;2023-03-11T04:31:53;1.40;99.90
11840;DHT22;5979;50.800;4.904;2023-03-11T04:34:19;1.40;99.90
11840;DHT22;5979;50.800;4.904;2023-03-11T04:36:45;1.40;99.90
11840;DHT22;5979;50.800;4.904;2023-03-11T04:39:10;1.40;99.90
11840;DHT22;5979;50.800;4.904;2023-03-11T04:41:36;1.30;99.90
11840;DHT22;5979;50.800;4.904;2023-03-11T04:44:27;1.30;99.90
11840;DHT22;5979;50.800;4.904;2023-03-11T04:46:53;1.30;99.90
11840;DHT22;5979;50.800;4.904;2023-03-11T04:49:18;1.30;99.90
11840;DHT22;5979;50.800;4.904;2023-03-11T04:51:44;1.20;99.90
11840;DHT22;5979;50.800;4.904;2023-03-11T04:54:10;1.20;99.90
11840;DHT22;5979;50.800;4.904;2023-03-11T04:56:35;1.20;99.90
11840;DHT22;5979;50.800;4.904;2023-03-11T04:59:01;1.20;99.90
11840;DHT22;5979;50.800;4.904;2023-03-11T05:01:27;1.20;99.90
11840;DHT22;5979;50.800;4.904;2023-03-11T05:03:53;1.20;99.90
11840;DHT22;5979;50.800;4.904;2023-03-11T05:06:18;1.20;99.90
11840;DHT22;5979;50.800;4.904;2023-03-11T05:08:47;1.10;99.90
11840;DHT22;5979;50.800;4.904;2023-03-11T05:11:12;1.20;99.90
11840;DHT22;5979;50.800;4.904;2023-03-11T05:13:38;1.10;99.90
11840;DHT22;5979;50.800;4.904;2023-03-11T05:16:04;1.10;99.90
11840;DHT22;5979;50.800;4.904;2023-03-11T05:18:30;1.10;99.90
11840;DHT22;5979;50.800;4.904;2023-03-11T05:20:57;1.10;99.90
11840;DHT22;5979;50.800;4.904;2023-03-11T05:23:23;1.00;99.90
11840;DHT22;5979;50.800;4.904;2023-03-11T05:25:48;1.00;99.90
11840;DHT22;5979;50.800;4.904;2023-03-11T05:28:14;0.90;99.90
11840;DHT22;5979;50.800;4.904;2023-03-11T05:30:40;0.90;99.90
11840;DHT22;5979;50.800;4.904;2023-03-11T05:33:05;0.90;99.90
11840;DHT22;5979;50.800;4.904;2023-03-11T05:35:31;0.90;99.90
11840;DHT22;5979;50.800;4.904;2023-03-11T05:37:57;0.90;99.90
11840;DHT22;5979;50.800;4.904;2023-03-11T05:40:22;0.90;99.90
11840;DHT22;5979;50.800;4.904;2023-03-11T05:42:48;0.90;99.90
11840;DHT22;5979;50.800;4.904;2023-03-11T05:45:14;0.80;99.90
11840;DHT22;5979;50.800;4.904;2023-03-11T05:47:40;0.80;99.90
11840;DHT22;5979;50.800;4.904;2023-03-11T05:50:08;0.80;99.90
11840;DHT22;5979;50.800;4.904;2023-03-11T05:52:34;0.80;99.90
11840;DHT22;5979;50.800;4.904;2023-03-11T05:55:00;0.80;99.90
11840;DHT22;5979;50.800;4.904;2023-03-11T05:57:25;0.80;99.90
11840;DHT22;5979;50.800;4.904;2023-03-11T05:59:51;0.80;99.90
11840;DHT22;5979;50.800;4.904;2023-03-11T06:02:17;0.80;99.90
11840;DHT22;5979;50.800;4.904;2023-03-11T06:04:42;0.80;99.90
11840;DHT22;5979;50.800;4.904;2023-03-11T06:07:08;0.70;99.90
11840;DHT22;5979;50.800;4.904;2023-03-11T06:09:36;0.70;99.90
11840;DHT22;5979;50.800;4.904;2023-03-11T06:12:03;0.70;99.90
11840;DHT22;5979;50.800;4.904;2023-03-11T06:14:29;0.70;99.90
11840;DHT22;5979;50.800;4.904;2023-03-11T06:16:57;0.70;99.90
11840;DHT22;5979;50.800;4.904;2023-03-11T06:19:24;0.80;99.90
11840;DHT22;5979;50.800;4.904;2023-03-11T06:21:49;0.80;99.90
11840;DHT22;5979;50.800;4.904;2023-03-11T06:24:15;0.80;99.90
11840;DHT22;5979;50.800;4.904;2023-03-11T06:26:41;0.80;99.90
11840;DHT22;5979;50.800;4.904;2023-03-11T06:29:12;0.90;99.90
11840;DHT22;5979;50.800;4.904;2023-03-11T06:31:38;0.90;99.90
11840;DHT22;5979;50.800;4.904;2023-03-11T06:34:05;0.90;99.90
11840;DHT22;5979;50.800;4.904;2023-03-11T06:36:31;1.00;99.90
11840;DHT22;5979;50.800;4.904;2023-03-11T06:38:57;1.10;99.90
11840;DHT22;5979;50.800;4.904;2023-03-11T06:41:23;1.10;99.90
11840;DHT22;5979;50.800;4.904;2023-03-11T06:43:49;1.30;99.90
11840;DHT22;5979;50.800;4.904;2023-03-11T06:46:18;1.40;99.90
11840;DHT22;5979;50.800;4.904;2023-03-11T06:48:45;1.60;99.90
11840;DHT22;5979;50.800;4.904;2023-03-11T06:51:11;1.80;99.90
11840;DHT22;5979;50.800;4.904;2023-03-11T06:53:36;2.00;99.90
11840;DHT22;5979;50.800;4.904;2023-03-11T06:56:10;2.10;99.90
11840;DHT22;5979;50.800;4.904;2023-03-11T06:58:38;2.40;99.90
11840;DHT22;5979;50.800;4.904;2023-03-11T07:03:31;2.70;99.90
11840;DHT22;5979;50.800;4.904;2023-03-11T07:05:57;2.80;99.90
11840;DHT22;5979;50.800;4.904;2023-03-11T07:08:25;2.90;99.90
11840;DHT22;5979;50.800;4.904;2023-03-11T07:11:05;3.10;99.90
11840;DHT22;5979;50.800;4.904;2023-03-11T07:13:32;3.20;99.90
11840;DHT22;5979;50.800;4.904;2023-03-11T07:16:01;3.30;99.90
11840;DHT22;5979;50.800;4.904;2023-03-11T07:18:28;3.40;99.90
11840;DHT22;5979;50.800;4.904;2023-03-11T07:20:54;3.60;99.90
11840;DHT22;5979;50.800;4.904;2023-03-11T07:23:19;3.80;99.90
11840;DHT22;5979;50.800;4.904;2023-03-11T07:25:46;3.90;99.90
11840;DHT22;5979;50.800;4.904;2023-03-11T07:28:12;4.10;99.90
11840;DHT22;5979;50.800;4.904;2023-03-11T07:30:38;4.20;99.90
11840;DHT22;5979;50.800;4.904;2023-03-11T07:33:04;4.30;99.90
11840;DHT22;5979;50.800;4.904;2023-03-11T07:35:30;4.30;99.90
11840;DHT22;5979;50.800;4.904;2023-03-11T07:37:56;4.40;99.90
11840;DHT22;5979;50.800;4.904;2023-03-11T07:40:22;4.50;99.90
11840;DHT22;5979;50.800;4.904;2023-03-11T07:42:48;4.60;99.90
11840;DHT22;5979;50.800;4.904;2023-03-11T07:45:13;4.80;99.90
11840;DHT22;5979;50.800;4.904;2023-03-11T07:47:39;4.70;99.90
11840;DHT22;5979;50.800;4.904;2023-03-11T07:50:05;4.80;99.90
11840;DHT22;5979;50.800;4.904;2023-03-11T07:52:31;4.90;99.90
11840;DHT22;5979;50.800;4.904;2023-03-11T07:54:57;5.00;99.90
11840;DHT22;5979;50.800;4.904;2023-03-11T07:57:23;5.00;99.90
11840;DHT22;5979;50.800;4.904;2023-03-11T07:59:49;5.00;99.90
11840;DHT22;5979;50.800;4.904;2023-03-11T08:02:15;5.10;99.90
11840;DHT22;5979;50.800;4.904;2023-03-11T08:04:40;5.30;99.90
11840;DHT22;5979;50.800;4.904;2023-03-11T08:07:06;5.40;99.90
11840;DHT22;5979;50.800;4.904;2023-03-11T08:09:33;5.30;99.90
11840;DHT22;5979;50.800;4.904;2023-03-11T08:11:59;5.30;99.90
11840;DHT22;5979;50.800;4.904;2023-03-11T08:14:25;5.40;99.90
11840;DHT22;5979;50.800;4.904;2023-03-11T08:16:51;5.50;99.90
11840;DHT22;5979;50.800;4.904;2023-03-11T08:19:17;5.70;99.90
11840;DHT22;5979;50.800;4.904;2023-03-11T08:21:42;5.80;99.90
11840;DHT22;5979;50.800;4.904;2023-03-11T08:24:10;6.00;99.90
11840;DHT22;5979;50.800;4.904;2023-03-11T08:26:37;5.90;99.90
11840;DHT22;5979;50.800;4.904;2023-03-11T08:29:03;6.00;99.90
11840;DHT22;5979;50.800;4.904;2023-03-11T08:31:30;6.20;99.90
11840;DHT22;5979;50.800;4.904;2023-03-11T08:33:59;6.30;99.90
11840;DHT22;5979;50.800;4.904;2023-03-11T08:36:25;6.30;99.90
11840;DHT22;5979;50.800;4.904;2023-03-11T08:38:51;6.40;99.90
11840;DHT22;5979;50.800;4.904;2023-03-11T08:41:17;6.50;99.90
11840;DHT22;5979;50.800;4.904;2023-03-11T08:43:43;6.70;99.90
11840;DHT22;5979;50.800;4.904;2023-03-11T08:46:34;6.90;99.90
11840;DHT22;5979;50.800;4.904;2023-03-11T08:49:00;7.10;99.90
11840;DHT22;5979;50.800;4.904;2023-03-11T08:51:26;7.20;99.90
11840;DHT22;5979;50.800;4.904;2023-03-11T08:53:52;7.20;99.90
11840;DHT22;5979;50.800;4.904;2023-03-11T08:56:19;7.30;99.90
11840;DHT22;5979;50.800;4.904;2023-03-11T08:58:45;7.20;99.90
11840;DHT22;5979;50.800;4.904;2023-03-11T09:01:12;7.30;99.90
11840;DHT22;5979;50.800;4.904;2023-03-11T09:03:38;7.40;99.90
11840;DHT22;5979;50.800;4.904;2023-03-11T09:06:07;7.50;99.90
11840;DHT22;5979;50.800;4.904;2023-03-11T09:08:33;7.60;99.90
11840;DHT22;5979;50.800;4.904;2023-03-11T09:10:59;7.80;99.90
11840;DHT22;5979;50.800;4.904;2023-03-11T09:13:25;8.00;99.90
11840;DHT22;5979;50.800;4.904;2023-03-11T09:15:51;8.30;99.90
11840;DHT22;5979;50.800;4.904;2023-03-11T09:18:18;8.40;99.90
11840;DHT22;5979;50.800;4.904;2023-03-11T09:20:44;8.60;99.90
11840;DHT22;5979;50.800;4.904;2023-03-11T09:23:12;8.80;99.90
11840;DHT22;5979;50.800;4.904;2023-03-11T09:25:38;8.80;99.90
11840;DHT22;5979;50.800;4.904;2023-03-11T09:28:04;8.90;99.90
11840;DHT22;5979;50.800;4.904;2023-03-11T09:30:31;9.00;99.90
11840;DHT22;5979;50.800;4.904;2023-03-11T09:32:57;8.90;99.90
11840;DHT22;5979;50.800;4.904;2023-03-11T09:35:23;9.00;99.90
11840;DHT22;5979;50.800;4.904;2023-03-11T09:37:49;8.90;99.90
11840;DHT22;5979;50.800;4.904;2023-03-11T09:40:21;9.00;99.90
11840;DHT22;5979;50.800;4.904;2023-03-11T09:43:09;9.10;99.90
11840;DHT22;5979;50.800;4.904;2023-03-11T09:45:59;9.20;99.90
11840;DHT22;5979;50.800;4.904;2023-03-11T09:48:40;9.20;99.90
11840;DHT22;5979;50.800;4.904;2023-03-11T09:51:09;9.10;99.90
11840;DHT22;5979;50.800;4.904;2023-03-11T09:53:41;9.20;99.90
11840;DHT22;5979;50.800;4.904;2023-03-11T09:56:12;9.20;99.90
11840;DHT22;5979;50.800;4.904;2023-03-11T09:58:49;9.20;99.90
11840;DHT22;5979;50.800;4.904;2023-03-11T10:01:25;9.20;99.90
11840;DHT22;5979;50.800;4.904;2023-03-11T10:03:55;9.20;99.90
11840;DHT22;5979;50.800;4.904;2023-03-11T10:06:25;9.20;99.90
11840;DHT22;5979;50.800;4.904;2023-03-11T10:17:17;9.80;99.90
11840;DHT22;5979;50.800;4.904;2023-03-11T10:19:54;10.10;99.90
11840;DHT22;5979;50.800;4.904;2023-03-11T10:22:25;10.40;99.90
11840;DHT22;5979;50.800;4.904;2023-03-11T10:25:07;10.50;99.90
11840;DHT22;5979;50.800;4.904;2023-03-11T10:27:51;10.50;99.90
11840;DHT22;5979;50.800;4.904;2023-03-11T10:30:46;10.40;99.90
11840;DHT22;5979;50.800;4.904;2023-03-11T10:36:03;10.10;99.90
11840;DHT22;5979;50.800;4.904;2023-03-11T10:38:34;10.10;99.90
11840;DHT22;5979;50.800;4.904;2023-03-11T10:46:35;10.10;99.90
11840;DHT22;5979;50.800;4.904;2023-03-11T10:49:01;10.20;99.90
11840;DHT22;5979;50.800;4.904;2023-03-11T10:51:33;10.30;99.90
11840;DHT22;5979;50.800;4.904;2023-03-11T10:54:00;10.40;99.90
11840;DHT22;5979;50.800;4.904;2023-03-11T10:56:39;10.40;99.90
11840;DHT22;5979;50.800;4.904;2023-03-11T10:59:27;10.40;99.90
11840;DHT22;5979;50.800;4.904;2023-03-11T11:01:59;10.30;99.90
11840;DHT22;5979;50.800;4.904;2023-03-11T11:04:35;10.30;99.90
11840;DHT22;5979;50.800;4.904;2023-03-11T11:07:30;10.40;99.90
11840;DHT22;5979;50.800;4.904;2023-03-11T11:10:25;10.40;99.90
11840;DHT22;5979;50.800;4.904;2023-03-11T11:12:52;10.10;99.90
11840;DHT22;5979;50.800;4.904;2023-03-11T11:15:36;9.90;99.90
11840;DHT22;5979;50.800;4.904;2023-03-11T11:18:20;9.80;99.90
11840;DHT22;5979;50.800;4.904;2023-03-11T11:23:47;9.30;99.90
11840;DHT22;5979;50.800;4.904;2023-03-11T11:26:23;9.30;99.90
11840;DHT22;5979;50.800;4.904;2023-03-11T11:31:37;9.20;99.90
11840;DHT22;5979;50.800;4.904;2023-03-11T11:34:13;9.30;99.90
11840;DHT22;5979;50.800;4.904;2023-03-11T11:36:48;9.50;99.90
11840;DHT22;5979;50.800;4.904;2023-03-11T11:39:16;9.60;99.90
11840;DHT22;5979;50.800;4.904;2023-03-11T11:41:44;9.70;99.90
11840;DHT22;5979;50.800;4.904;2023-03-11T11:44:14;9.80;99.90
11840;DHT22;5979;50.800;4.904;2023-03-11T11:46:42;9.90;99.90
11840;DHT22;5979;50.800;4.904;2023-03-11T11:49:22;9.50;99.90
11840;DHT22;5979;50.800;4.904;2023-03-11T11:56:59;9.80;99.90
11840;DHT22;5979;50.800;4.904;2023-03-11T11:59:29;9.80;99.90
11840;DHT22;5979;50.800;4.904;2023-03-11T12:15:23;10.00;99.90
11840;DHT22;5979;50.800;4.904;2023-03-11T12:17:54;10.10;99.90
11840;DHT22;5979;50.800;4.904;2023-03-11T12:20:31;9.80;99.90
11840;DHT22;5979;50.800;4.904;2023-03-11T12:26:17;9.70;99.90
11840;DHT22;5979;50.800;4.904;2023-03-11T12:29:06;9.70;99.90
11840;DHT22;5979;50.800;4.904;2023-03-11T12:31:36;9.60;99.90
11840;DHT22;5979;50.800;4.904;2023-03-11T12:34:10;9.50;99.90
11840;DHT22;5979;50.800;4.904;2023-03-11T12:36:41;9.70;99.90
11840;DHT22;5979;50.800;4.904;2023-03-11T12:39:28;9.80;99.90
11840;DHT22;5979;50.800;4.904;2023-03-11T12:44:37;9.60;99.90
11840;DHT22;5979;50.800;4.904;2023-03-11T12:47:17;9.60;99.90
11840;DHT22;5979;50.800;4.904;2023-03-11T12:49:45;9.60;99.90
11840;DHT22;5979;50.800;4.904;2023-03-11T13:05:27;9.30;99.90
11840;DHT22;5979;50.800;4.904;2023-03-11T13:08:17;9.30;99.90
11840;DHT22;5979;50.800;4.904;2023-03-11T13:10:52;9.30;99.90
11840;DHT22;5979;50.800;4.904;2023-03-11T13:15:53;9.40;99.90
11840;DHT22;5979;50.800;4.904;2023-03-11T13:18:24;9.30;99.90
11840;DHT22;5979;50.800;4.904;2023-03-11T13:20:58;9.10;99.90
11840;DHT22;5979;50.800;4.904;2023-03-11T13:23:33;8.70;99.90
11840;DHT22;5979;50.800;4.904;2023-03-11T13:26:25;8.70;99.90
11840;DHT22;5979;50.800;4.904;2023-03-11T13:36:50;8.60;99.90
11840;DHT22;5979;50.800;4.904;2023-03-11T13:41:52;8.50;99.90
11840;DHT22;5979;50.800;4.904;2023-03-11T13:46:52;8.50;99.90
11840;DHT22;5979;50.800;4.904;2023-03-11T13:51:55;8.70;99.90
11840;DHT22;5979;50.800;4.904;2023-03-11T13:54:40;8.80;99.90
11840;DHT22;5979;50.800;4.904;2023-03-11T13:57:37;8.80;99.90
11840;DHT22;5979;50.800;4.904;2023-03-11T14:00:29;8.80;99.90
11840;DHT22;5979;50.800;4.904;2023-03-11T14:05:32;8.80;99.90
11840;DHT22;5979;50.800;4.904;2023-03-11T14:11:00;8.80;99.90
11840;DHT22;5979;50.800;4.904;2023-03-11T14:13:30;8.70;99.90
11840;DHT22;5979;50.800;4.904;2023-03-11T14:18:40;8.70;99.90
11840;DHT22;5979;50.800;4.904;2023-03-11T14:21:15;8.70;99.90
11840;DHT22;5979;50.800;4.904;2023-03-11T14:23:49;8.70;99.90
11840;DHT22;5979;50.800;4.904;2023-03-11T14:26:17;8.70;99.90
11840;DHT22;5979;50.800;4.904;2023-03-11T14:28:47;8.70;99.90
11840;DHT22;5979;50.800;4.904;2023-03-11T14:31:47;8.70;99.90
11840;DHT22;5979;50.800;4.904;2023-03-11T14:34:18;8.60;99.90
11840;DHT22;5979;50.800;4.904;2023-03-11T14:36:58;8.60;99.90
11840;DHT22;5979;50.800;4.904;2023-03-11T14:39:33;8.50;99.90
11840;DHT22;5979;50.800;4.904;2023-03-11T14:44:35;8.40;99.90
11840;DHT22;5979;50.800;4.904;2023-03-11T14:49:51;8.20;99.90
11840;DHT22;5979;50.800;4.904;2023-03-11T14:52:24;8.20;99.90
11840;DHT22;5979;50.800;4.904;2023-03-11T14:54:53;8.20;99.90
11840;DHT22;5979;50.800;4.904;2023-03-11T14:57:37;8.20;99.90
11840;DHT22;5979;50.800;4.904;2023-03-11T15:00:05;8.20;99.90
11840;DHT22;5979;50.800;4.904;2023-03-11T15:02:58;8.20;99.90
11840;DHT22;5979;50.800;4.904;2023-03-11T15:05:49;8.20;99.90
11840;DHT22;5979;50.800;4.904;2023-03-11T15:08:18;8.30;99.90
11840;DHT22;5979;50.800;4.904;2023-03-11T15:13:37;8.20;99.90
11840;DHT22;5979;50.800;4.904;2023-03-11T15:16:06;8.20;99.90
11840;DHT22;5979;50.800;4.904;2023-03-11T15:18:35;8.20;99.90
11840;DHT22;5979;50.800;4.904;2023-03-11T15:21:13;8.10;99.90
11840;DHT22;5979;50.800;4.904;2023-03-11T15:23:45;8.10;99.90
11840;DHT22;5979;50.800;4.904;2023-03-11T15:26:22;8.00;99.90
11840;DHT22;5979;50.800;4.904;2023-03-11T15:28:54;8.00;99.90
11840;DHT22;5979;50.800;4.904;2023-03-11T15:33:47;8.00;99.90
11840;DHT22;5979;50.800;4.904;2023-03-11T15:36:34;7.90;99.90
11840;DHT22;5979;50.800;4.904;2023-03-11T15:41:46;7.80;99.90
11840;DHT22;5979;50.800;4.904;2023-03-11T15:44:32;7.70;99.90
11840;DHT22;5979;50.800;4.904;2023-03-11T15:47:00;7.70;99.90
11840;DHT22;5979;50.800;4.904;2023-03-11T15:49:28;7.70;99.90
11840;DHT22;5979;50.800;4.904;2023-03-11T15:52:01;7.60;99.90
11840;DHT22;5979;50.800;4.904;2023-03-11T15:54:27;7.70;99.90
11840;DHT22;5979;50.800;4.904;2023-03-11T15:56:55;7.60;99.90
11840;DHT22;5979;50.800;4.904;2023-03-11T15:59:22;7.60;99.90
11840;DHT22;5979;50.800;4.904;2023-03-11T16:01:48;7.60;99.90
11840;DHT22;5979;50.800;4.904;2023-03-11T16:04:16;7.60;99.90
11840;DHT22;5979;50.800;4.904;2023-03-11T16:06:42;7.60;99.90
11840;DHT22;5979;50.800;4.904;2023-03-11T16:09:09;7.60;99.90
11840;DHT22;5979;50.800;4.904;2023-03-11T16:11:35;7.60;99.90
11840;DHT22;5979;50.800;4.904;2023-03-11T16:14:01;7.60;99.90
11840;DHT22;5979;50.800;4.904;2023-03-11T16:16:27;7.60;99.90
11840;DHT22;5979;50.800;4.904;2023-03-11T16:18:53;7.60;99.90
11840;DHT22;5979;50.800;4.904;2023-03-11T16:21:20;7.60;99.90
11840;DHT22;5979;50.800;4.904;2023-03-11T16:23:47;7.60;99.90
11840;DHT22;5979;50.800;4.904;2023-03-11T16:26:14;7.50;99.90
11840;DHT22;5979;50.800;4.904;2023-03-11T16:28:40;7.50;99.90
11840;DHT22;5979;50.800;4.904;2023-03-11T16:31:06;7.50;99.90
11840;DHT22;5979;50.800;4.904;2023-03-11T16:33:35;7.40;99.90
11840;DHT22;5979;50.800;4.904;2023-03-11T16:36:02;7.30;99.90
11840;DHT22;5979;50.800;4.904;2023-03-11T16:38:29;7.30;99.90
11840;DHT22;5979;50.800;4.904;2023-03-11T16:41:01;7.20;99.90
11840;DHT22;5979;50.800;4.904;2023-03-11T16:43:28;7.20;99.90
11840;DHT22;5979;50.800;4.904;2023-03-11T16:45:54;7.10;99.90
11840;DHT22;5979;50.800;4.904;2023-03-11T16:48:21;7.10;99.90
11840;DHT22;5979;50.800;4.904;2023-03-11T16:50:47;7.10;99.90
11840;DHT22;5979;50.800;4.904;2023-03-11T16:53:14;7.00;99.90
11840;DHT22;5979;50.800;4.904;2023-03-11T16:55:43;7.00;99.90
11840;DHT22;5979;50.800;4.904;2023-03-11T16:58:10;7.00;99.90
11840;DHT22;5979;50.800;4.904;2023-03-11T17:00:36;7.00;99.90
11840;DHT22;5979;50.800;4.904;2023-03-11T17:03:02;6.90;99.90
11840;DHT22;5979;50.800;4.904;2023-03-11T17:05:28;6.90;99.90
11840;DHT22;5979;50.800;4.904;2023-03-11T17:07:55;6.90;99.90
11840;DHT22;5979;50.800;4.904;2023-03-11T17:10:26;6.80;99.90
11840;DHT22;5979;50.800;4.904;2023-03-11T17:12:53;6.80;99.90
11840;DHT22;5979;50.800;4.904;2023-03-11T17:15:19;6.80;99.90
11840;DHT22;5979;50.800;4.904;2023-03-11T17:17:45;6.70;99.90
11840;DHT22;5979;50.800;4.904;2023-03-11T17:20:11;6.70;99.90
11840;DHT22;5979;50.800;4.904;2023-03-11T17:22:37;6.70;99.90
11840;DHT22;5979;50.800;4.904;2023-03-11T17:25:03;6.70;99.90
11840;DHT22;5979;50.800;4.904;2023-03-11T17:27:30;6.60;99.90
11840;DHT22;5979;50.800;4.904;2023-03-11T17:30:01;6.60;99.90
11840;DHT22;5979;50.800;4.904;2023-03-11T17:32:30;6.60;99.90
11840;DHT22;5979;50.800;4.904;2023-03-11T17:34:56;6.60;99.90
11840;DHT22;5979;50.800;4.904;2023-03-11T17:37:22;6.50;99.90
11840;DHT22;5979;50.800;4.904;2023-03-11T17:39:48;6.50;99.90
11840;DHT22;5979;50.800;4.904;2023-03-11T17:42:13;6.50;99.90
11840;DHT22;5979;50.800;4.904;2023-03-11T17:44:44;6.40;99.90
11840;DHT22;5979;50.800;4.904;2023-03-11T17:47:10;6.40;99.90
11840;DHT22;5979;50.800;4.904;2023-03-11T17:49:35;6.30;99.90
11840;DHT22;5979;50.800;4.904;2023-03-11T17:52:01;6.30;99.90
11840;DHT22;5979;50.800;4.904;2023-03-11T17:54:27;6.30;99.90
11840;DHT22;5979;50.800;4.904;2023-03-11T17:56:55;6.20;99.90
11840;DHT22;5979;50.800;4.904;2023-03-11T17:59:21;6.10;99.90